sensor_id;sensor_type;location;lat;lon;timestamp;pressure;altitude;pressure_sealevel;temperature;humidity
3444;BME280;1736;52.068;6.968;2023-08-08T00:01:14;62237.41;;;-140.80;100.00
3444;BME280;1736;52.068;6.968;2023-08-08T00:03:41;62237.41;;;-140.80;100.00
3444;BME280;1736;52.068;6.968;2023-08-08T00:06:08;62237.41;;;-140.80;100.00
3444;BME280;1736;52.068;6.968;2023-08-08T00:08:36;62237.41;;;-140.80;100.00
3444;BME280;1736;52.068;6.968;2023-08-08T00:11:02;62237.41;;;-140.80;100.00
3444;BME280;1736;52.068;6.968;2023-08-08T00:13:30;62237.41;;;-140.80;100.00
3444;BME280;1736;52.068;6.968;2023-08-08T00:15:57;62237.41;;;-140.80;100.00
3444;BME280;1736;52.068;6.968;2023-08-08T00:18:24;62237.41;;;-140.80;100.00
3444;BME280;1736;52.068;6.968;2023-08-08T00:20:50;62237.41;;;-140.80;100.00
3444;BME280;1736;52.068;6.968;2023-08-08T00:23:17;62237.41;;;-140.80;100.00
3444;BME280;1736;52.068;6.968;2023-08-08T00:25:44;62237.41;;;-140.80;100.00
3444;BME280;1736;52.068;6.968;2023-08-08T00:28:15;62237.41;;;-140.80;100.00
3444;BME280;1736;52.068;6.968;2023-08-08T00:30:43;62237.41;;;-140.80;100.00
3444;BME280;1736;52.068;6.968;2023-08-08T00:33:09;62237.41;;;-140.80;100.00
3444;BME280;1736;52.068;6.968;2023-08-08T00:35:36;62237.41;;;-140.80;100.00
3444;BME280;1736;52.068;6.968;2023-08-08T00:38:03;62237.41;;;-140.80;100.00
3444;BME280;1736;52.068;6.968;2023-08-08T00:40:29;62237.41;;;-140.80;100.00
3444;BME280;1736;52.068;6.968;2023-08-08T00:42:56;62237.41;;;-140.80;100.00
3444;BME280;1736;52.068;6.968;2023-08-08T00:45:22;62237.41;;;-140.80;100.00
3444;BME280;1736;52.068;6.968;2023-08-08T00:47:50;62237.41;;;-140.80;100.00
3444;BME280;1736;52.068;6.968;2023-08-08T00:50:17;62237.41;;;-140.80;100.00
3444;BME280;1736;52.068;6.968;2023-08-08T00:52:44;62237.41;;;-140.80;100.00
3444;BME280;1736;52.068;6.968;2023-08-08T00:55:11;62237.41;;;-140.80;100.00
3444;BME280;1736;52.068;6.968;2023-08-08T00:57:40;62237.41;;;-140.80;100.00
3444;BME280;1736;52.068;6.968;2023-08-08T01:00:07;62237.41;;;-140.80;100.00
3444;BME280;1736;52.068;6.968;2023-08-08T01:02:35;62237.41;;;-140.80;100.00
3444;BME280;1736;52.068;6.968;2023-08-08T01:05:04;62237.41;;;-140.80;100.00
3444;BME280;1736;52.068;6.968;2023-08-08T01:07:37;62237.41;;;-140.80;100.00
3444;BME280;1736;52.068;6.968;2023-08-08T01:10:07;62237.41;;;-140.80;100.00
3444;BME280;1736;52.068;6.968;2023-08-08T01:12:38;62237.41;;;-140.80;100.00
3444;BME280;1736;52.068;6.968;2023-08-08T01:15:07;62237.41;;;-140.80;100.00
3444;BME280;1736;52.068;6.968;2023-08-08T01:17:35;62237.41;;;-140.80;100.00
3444;BME280;1736;52.068;6.968;2023-08-08T01:20:06;62237.41;;;-140.80;100.00
3444;BME280;1736;52.068;6.968;2023-08-08T01:22:36;62237.41;;;-140.80;100.00
3444;BME280;1736;52.068;6.968;2023-08-08T01:25:06;62237.41;;;-140.80;100.00
3444;BME280;1736;52.068;6.968;2023-08-08T01:27:35;62237.41;;;-140.80;100.00
3444;BME280;1736;52.068;6.968;2023-08-08T01:30:01;62237.41;;;-140.80;100.00
3444;BME280;1736;52.068;6.968;2023-08-08T01:32:29;62237.41;;;-140.80;100.00
3444;BME280;1736;52.068;6.968;2023-08-08T01:34:56;62237.41;;;-140.80;100.00
3444;BME280;1736;52.068;6.968;2023-08-08T01:37:26;62237.41;;;-140.80;100.00
3444;BME280;1736;52.068;6.968;2023-08-08T01:39:56;62237.41;;;-140.80;100.00
3444;BME280;1736;52.068;6.968;2023-08-08T01:42:26;62237.41;;;-140.80;100.00
3444;BME280;1736;52.068;6.968;2023-08-08T01:44:54;62237.41;;;-140.80;100.00
3444;BME280;1736;52.068;6.968;2023-08-08T01:47:21;62237.41;;;-140.80;100.00
3444;BME280;1736;52.068;6.968;2023-08-08T01:49:48;62237.41;;;-140.80;100.00
3444;BME280;1736;52.068;6.968;2023-08-08T01:52:15;62237.41;;;-140.80;100.00
3444;BME280;1736;52.068;6.968;2023-08-08T01:54:41;62237.41;;;-140.80;100.00
3444;BME280;1736;52.068;6.968;2023-08-08T01:57:08;62237.41;;;-140.80;100.00
3444;BME280;1736;52.068;6.968;2023-08-08T01:59:36;62237.41;;;-140.80;100.00
3444;BME280;1736;52.068;6.968;2023-08-08T02:02:03;62237.41;;;-140.80;100.00
3444;BME280;1736;52.068;6.968;2023-08-08T02:04:31;62237.41;;;-140.80;100.00
3444;BME280;1736;52.068;6.968;2023-08-08T02:06:58;62237.41;;;-140.80;100.00
3444;BME280;1736;52.068;6.968;2023-08-08T02:09:25;62237.41;;;-140.80;100.00
3444;BME280;1736;52.068;6.968;2023-08-08T02:11:52;62237.41;;;-140.80;100.00
3444;BME280;1736;52.068;6.968;2023-08-08T02:14:18;62237.41;;;-140.80;100.00
3444;BME280;1736;52.068;6.968;2023-08-08T02:16:46;62237.41;;;-140.80;100.00
3444;BME280;1736;52.068;6.968;2023-08-08T02:19:13;62237.41;;;-140.80;100.00
3444;BME280;1736;52.068;6.968;2023-08-08T02:21:40;62237.41;;;-140.80;100.00
3444;BME280;1736;52.068;6.968;2023-08-08T02:24:06;62237.41;;;-140.80;100.00
3444;BME280;1736;52.068;6.968;2023-08-08T02:26:33;62237.41;;;-140.80;100.00
3444;BME280;1736;52.068;6.968;2023-08-08T02:29:00;62237.41;;;-140.80;100.00
3444;BME280;1736;52.068;6.968;2023-08-08T02:31:27;62237.41;;;-140.80;100.00
3444;BME280;1736;52.068;6.968;2023-08-08T02:33:55;62237.41;;;-140.80;100.00
3444;BME280;1736;52.068;6.968;2023-08-08T02:36:21;62237.41;;;-140.80;100.00
3444;BME280;1736;52.068;6.968;2023-08-08T02:38:48;62237.41;;;-140.80;100.00
3444;BME280;1736;52.068;6.968;2023-08-08T02:41:15;62237.41;;;-140.80;100.00
3444;BME280;1736;52.068;6.968;2023-08-08T02:43:41;62237.41;;;-140.80;100.00
3444;BME280;1736;52.068;6.968;2023-08-08T02:46:08;62237.41;;;-140.80;100.00
3444;BME280;1736;52.068;6.968;2023-08-08T02:48:35;62237.41;;;-140.80;100.00
3444;BME280;1736;52.068;6.968;2023-08-08T02:51:03;62237.41;;;-140.80;100.00
3444;BME280;1736;52.068;6.968;2023-08-08T02:53:29;62237.41;;;-140.80;100.00
3444;BME280;1736;52.068;6.968;2023-08-08T02:55:56;62237.41;;;-140.80;100.00
3444;BME280;1736;52.068;6.968;2023-08-08T02:58:23;62237.41;;;-140.80;100.00
3444;BME280;1736;52.068;6.968;2023-08-08T03:00:50;62237.41;;;-140.80;100.00
3444;BME280;1736;52.068;6.968;2023-08-08T03:03:17;62237.41;;;-140.80;100.00
3444;BME280;1736;52.068;6.968;2023-08-08T03:05:44;62237.41;;;-140.80;100.00
3444;BME280;1736;52.068;6.968;2023-08-08T03:08:12;62237.41;;;-140.80;100.00
3444;BME280;1736;52.068;6.968;2023-08-08T03:10:39;62237.41;;;-140.80;100.00
3444;BME280;1736;52.068;6.968;2023-08-08T03:13:06;62237.41;;;-140.80;100.00
3444;BME280;1736;52.068;6.968;2023-08-08T03:15:32;62237.41;;;-140.80;100.00
3444;BME280;1736;52.068;6.968;2023-08-08T03:18:00;62237.41;;;-140.80;100.00
3444;BME280;1736;52.068;6.968;2023-08-08T03:20:27;62237.41;;;-140.80;100.00
3444;BME280;1736;52.068;6.968;2023-08-08T03:22:53;62237.41;;;-140.80;100.00
3444;BME280;1736;52.068;6.968;2023-08-08T03:25:21;62237.41;;;-140.80;100.00
3444;BME280;1736;52.068;6.968;2023-08-08T03:27:48;62237.41;;;-140.80;100.00
3444;BME280;1736;52.068;6.968;2023-08-08T03:30:15;62237.41;;;-140.80;100.00
3444;BME280;1736;52.068;6.968;2023-08-08T03:32:41;62237.41;;;-140.80;100.00
3444;BME280;1736;52.068;6.968;2023-08-08T03:35:08;62237.41;;;-140.80;100.00
3444;BME280;1736;52.068;6.968;2023-08-08T03:37:35;62237.41;;;-140.80;100.00
3444;BME280;1736;52.068;6.968;2023-08-08T03:40:02;62237.41;;;-140.80;100.00
3444;BME280;1736;52.068;6.968;2023-08-08T03:42:31;62237.41;;;-140.80;100.00
3444;BME280;1736;52.068;6.968;2023-08-08T03:44:57;62237.41;;;-140.80;100.00
3444;BME280;1736;52.068;6.968;2023-08-08T03:47:24;62237.41;;;-140.80;100.00
3444;BME280;1736;52.068;6.968;2023-08-08T03:49:51;62237.41;;;-140.80;100.00
3444;BME280;1736;52.068;6.968;2023-08-08T03:52:20;62237.41;;;-140.80;100.00
3444;BME280;1736;52.068;6.968;2023-08-08T03:54:47;62237.41;;;-140.80;100.00
3444;BME280;1736;52.068;6.968;2023-08-08T03:57:13;62237.41;;;-140.80;100.00
3444;BME280;1736;52.068;6.968;2023-08-08T03:59:41;62237.41;;;-140.80;100.00
3444;BME280;1736;52.068;6.968;2023-08-08T04:02:08;62237.41;;;-140.80;100.00
3444;BME280;1736;52.068;6.968;2023-08-08T04:04:35;62237.41;;;-140.80;100.00
3444;BME280;1736;52.068;6.968;2023-08-08T04:07:01;62237.41;;;-140.80;100.00
3444;BME280;1736;52.068;6.968;2023-08-08T04:09:28;62237.41;;;-140.80;100.00
3444;BME280;1736;52.068;6.968;2023-08-08T04:11:55;62237.41;;;-140.80;100.00
3444;BME280;1736;52.068;6.968;2023-08-08T04:14:21;62237.41;;;-140.80;100.00
3444;BME280;1736;52.068;6.968;2023-08-08T04:16:49;62237.41;;;-140.80;100.00
3444;BME280;1736;52.068;6.968;2023-08-08T04:19:16;62237.41;;;-140.80;100.00
3444;BME280;1736;52.068;6.968;2023-08-08T04:21:43;62237.41;;;-140.80;100.00
3444;BME280;1736;52.068;6.968;2023-08-08T04:24:09;62237.41;;;-140.80;100.00
3444;BME280;1736;52.068;6.968;2023-08-08T04:26:37;62237.41;;;-140.80;100.00
3444;BME280;1736;52.068;6.968;2023-08-08T04:29:04;62237.41;;;-140.80;100.00
3444;BME280;1736;52.068;6.968;2023-08-08T04:31:31;62237.41;;;-140.80;100.00
3444;BME280;1736;52.068;6.968;2023-08-08T04:33:59;62237.41;;;-140.80;100.00
3444;BME280;1736;52.068;6.968;2023-08-08T04:36:26;62237.41;;;-140.80;100.00
3444;BME280;1736;52.068;6.968;2023-08-08T04:38:53;62237.41;;;-140.80;100.00
3444;BME280;1736;52.068;6.968;2023-08-08T04:41:19;62237.41;;;-140.80;100.00
3444;BME280;1736;52.068;6.968;2023-08-08T04:43:46;62237.41;;;-140.80;100.00
3444;BME280;1736;52.068;6.968;2023-08-08T04:46:13;62237.41;;;-140.80;100.00
3444;BME280;1736;52.068;6.968;2023-08-08T04:48:39;62237.41;;;-140.80;100.00
3444;BME280;1736;52.068;6.968;2023-08-08T04:51:08;62237.41;;;-140.80;100.00
3444;BME280;1736;52.068;6.968;2023-08-08T04:53:35;62237.41;;;-140.80;100.00
3444;BME280;1736;52.068;6.968;2023-08-08T04:56:03;62237.41;;;-140.80;100.00
3444;BME280;1736;52.068;6.968;2023-08-08T04:58:29;62237.41;;;-140.80;100.00
3444;BME280;1736;52.068;6.968;2023-08-08T05:00:56;62237.41;;;-140.80;100.00
3444;BME280;1736;52.068;6.968;2023-08-08T05:03:22;62237.41;;;-140.80;100.00
3444;BME280;1736;52.068;6.968;2023-08-08T05:05:49;62237.41;;;-140.80;100.00
3444;BME280;1736;52.068;6.968;2023-08-08T05:08:17;62237.41;;;-140.80;100.00
3444;BME280;1736;52.068;6.968;2023-08-08T05:10:44;62237.41;;;-140.80;100.00
3444;BME280;1736;52.068;6.968;2023-08-08T05:13:10;62237.41;;;-140.80;100.00
3444;BME280;1736;52.068;6.968;2023-08-08T05:15:37;62237.41;;;-140.80;100.00
3444;BME280;1736;52.068;6.968;2023-08-08T05:18:04;62237.41;;;-140.80;100.00
3444;BME280;1736;52.068;6.968;2023-08-08T05:20:31;62237.41;;;-140.80;100.00
3444;BME280;1736;52.068;6.968;2023-08-08T05:22:57;62237.41;;;-140.80;100.00
3444;BME280;1736;52.068;6.968;2023-08-08T05:25:26;62237.41;;;-140.80;100.00
3444;BME280;1736;52.068;6.968;2023-08-08T05:27:52;62237.41;;;-140.80;100.00
3444;BME280;1736;52.068;6.968;2023-08-08T05:30:19;62237.41;;;-140.80;100.00
3444;BME280;1736;52.068;6.968;2023-08-08T05:32:46;62237.41;;;-140.80;100.00
3444;BME280;1736;52.068;6.968;2023-08-08T05:35:12;62237.41;;;-140.80;100.00
3444;BME280;1736;52.068;6.968;2023-08-08T05:37:39;62237.41;;;-140.80;100.00
3444;BME280;1736;52.068;6.968;2023-08-08T05:40:07;62237.41;;;-140.80;100.00
3444;BME280;1736;52.068;6.968;2023-08-08T05:42:37;62237.41;;;-140.80;100.00
3444;BME280;1736;52.068;6.968;2023-08-08T05:45:04;62237.41;;;-140.80;100.00
3444;BME280;1736;52.068;6.968;2023-08-08T05:47:31;62237.41;;;-140.80;100.00
3444;BME280;1736;52.068;6.968;2023-08-08T05:49:58;62237.41;;;-140.80;100.00
3444;BME280;1736;52.068;6.968;2023-08-08T05:52:24;62237.41;;;-140.80;100.00
3444;BME280;1736;52.068;6.968;2023-08-08T05:54:51;62237.41;;;-140.80;100.00
3444;BME280;1736;52.068;6.968;2023-08-08T05:57:18;62237.41;;;-140.80;100.00
3444;BME280;1736;52.068;6.968;2023-08-08T05:59:48;62237.41;;;-140.80;100.00
3444;BME280;1736;52.068;6.968;2023-08-08T06:02:15;62237.41;;;-140.80;100.00
3444;BME280;1736;52.068;6.968;2023-08-08T06:04:42;62237.41;;;-140.80;100.00
3444;BME280;1736;52.068;6.968;2023-08-08T06:07:08;62237.41;;;-140.80;100.00
3444;BME280;1736;52.068;6.968;2023-08-08T06:09:35;62237.41;;;-140.80;100.00
3444;BME280;1736;52.068;6.968;2023-08-08T06:12:03;62237.41;;;-140.80;100.00
3444;BME280;1736;52.068;6.968;2023-08-08T06:14:30;62237.41;;;-140.80;100.00
3444;BME280;1736;52.068;6.968;2023-08-08T06:16:58;62237.41;;;-140.80;100.00
3444;BME280;1736;52.068;6.968;2023-08-08T06:19:25;62237.41;;;-140.80;100.00
3444;BME280;1736;52.068;6.968;2023-08-08T06:21:51;62237.41;;;-140.80;100.00
3444;BME280;1736;52.068;6.968;2023-08-08T06:24:18;62237.41;;;-140.80;100.00
3444;BME280;1736;52.068;6.968;2023-08-08T06:26:44;62237.41;;;-140.80;100.00
3444;BME280;1736;52.068;6.968;2023-08-08T06:29:11;62237.41;;;-140.80;100.00
3444;BME280;1736;52.068;6.968;2023-08-08T06:31:39;62237.41;;;-140.80;100.00
3444;BME280;1736;52.068;6.968;2023-08-08T06:34:07;62237.41;;;-140.80;100.00
3444;BME280;1736;52.068;6.968;2023-08-08T06:36:34;62237.41;;;-140.80;100.00
3444;BME280;1736;52.068;6.968;2023-08-08T06:39:00;62237.41;;;-140.80;100.00
3444;BME280;1736;52.068;6.968;2023-08-08T06:41:27;62237.41;;;-140.80;100.00
3444;BME280;1736;52.068;6.968;2023-08-08T06:43:54;62237.41;;;-140.80;100.00
3444;BME280;1736;52.068;6.968;2023-08-08T06:46:20;62237.41;;;-140.80;100.00
3444;BME280;1736;52.068;6.968;2023-08-08T06:48:48;62237.41;;;-140.80;100.00
3444;BME280;1736;52.068;6.968;2023-08-08T06:51:17;62237.41;;;-140.80;100.00
3444;BME280;1736;52.068;6.968;2023-08-08T06:53:43;62237.41;;;-140.80;100.00
3444;BME280;1736;52.068;6.968;2023-08-08T06:56:10;62237.41;;;-140.80;100.00
3444;BME280;1736;52.068;6.968;2023-08-08T06:58:37;62237.41;;;-140.80;100.00
3444;BME280;1736;52.068;6.968;2023-08-08T07:01:03;62237.41;;;-140.80;100.00
3444;BME280;1736;52.068;6.968;2023-08-08T07:03:30;62237.41;;;-140.80;100.00
3444;BME280;1736;52.068;6.968;2023-08-08T07:05:57;62237.41;;;-140.80;100.00
3444;BME280;1736;52.068;6.968;2023-08-08T07:08:25;62237.41;;;-140.80;100.00
3444;BME280;1736;52.068;6.968;2023-08-08T07:10:51;62237.41;;;-140.80;100.00
3444;BME280;1736;52.068;6.968;2023-08-08T07:13:18;62237.41;;;-140.80;100.00
3444;BME280;1736;52.068;6.968;2023-08-08T07:15:45;62237.41;;;-140.80;100.00
3444;BME280;1736;52.068;6.968;2023-08-08T07:18:11;62237.41;;;-140.80;100.00
3444;BME280;1736;52.068;6.968;2023-08-08T07:20:38;62237.41;;;-140.80;100.00
3444;BME280;1736;52.068;6.968;2023-08-08T07:23:05;62237.41;;;-140.80;100.00
3444;BME280;1736;52.068;6.968;2023-08-08T07:25:34;62237.41;;;-140.80;100.00
3444;BME280;1736;52.068;6.968;2023-08-08T07:28:01;62237.41;;;-140.80;100.00
3444;BME280;1736;52.068;6.968;2023-08-08T07:30:27;62237.41;;;-140.80;100.00
3444;BME280;1736;52.068;6.968;2023-08-08T07:32:54;62237.41;;;-140.80;100.00
3444;BME280;1736;52.068;6.968;2023-08-08T07:35:21;62237.41;;;-140.80;0.00
3444;BME280;1736;52.068;6.968;2023-08-08T07:37:47;100995.19;;;17.71;100.00
3444;BME280;1736;52.068;6.968;2023-08-08T07:40:14;100988.78;;;17.64;100.00
3444;BME280;1736;52.068;6.968;2023-08-08T07:42:44;100986.25;;;17.54;100.00
3444;BME280;1736;52.068;6.968;2023-08-08T07:45:10;100987.94;;;17.71;100.00
3444;BME280;1736;52.068;6.968;2023-08-08T07:47:37;100985.63;;;18.00;100.00
3444;BME280;1736;52.068;6.968;2023-08-08T07:50:05;101113.84;;;18.06;100.00
3444;BME280;1736;52.068;6.968;2023-08-08T07:52:33;101097.03;;;17.80;100.00
3444;BME280;1736;52.068;6.968;2023-08-08T07:55:00;101119.66;;;17.70;100.00
3444;BME280;1736;52.068;6.968;2023-08-08T07:57:27;101116.50;;;17.82;100.00
3444;BME280;1736;52.068;6.968;2023-08-08T07:59:57;101122.88;;;17.89;100.00
3444;BME280;1736;52.068;6.968;2023-08-08T08:02:23;101117.03;;;18.02;100.00
3444;BME280;1736;52.068;6.968;2023-08-08T08:04:50;101121.25;;;17.96;100.00
3444;BME280;1736;52.068;6.968;2023-08-08T08:07:16;101159.44;;;17.82;100.00
3444;BME280;1736;52.068;6.968;2023-08-08T08:09:43;101126.25;;;17.99;100.00
3444;BME280;1736;52.068;6.968;2023-08-08T08:12:10;101119.03;;;17.84;100.00
3444;BME280;1736;52.068;6.968;2023-08-08T08:14:37;101137.03;;;18.23;100.00
3444;BME280;1736;52.068;6.968;2023-08-08T08:17:05;101125.47;;;18.31;100.00
3444;BME280;1736;52.068;6.968;2023-08-08T08:19:31;101126.66;;;18.44;100.00
3444;BME280;1736;52.068;6.968;2023-08-08T08:21:58;101107.69;;;18.54;100.00
3444;BME280;1736;52.068;6.968;2023-08-08T08:24:25;101125.00;;;18.51;100.00
3444;BME280;1736;52.068;6.968;2023-08-08T08:26:51;101115.09;;;18.36;100.00
3444;BME280;1736;52.068;6.968;2023-08-08T08:29:18;101125.31;;;18.48;100.00
3444;BME280;1736;52.068;6.968;2023-08-08T08:31:45;101129.03;;;18.47;100.00
3444;BME280;1736;52.068;6.968;2023-08-08T08:34:12;101125.31;;;18.40;100.00
3444;BME280;1736;52.068;6.968;2023-08-08T08:36:39;101116.25;;;18.25;100.00
3444;BME280;1736;52.068;6.968;2023-08-08T08:39:06;101114.06;;;18.53;100.00
3444;BME280;1736;52.068;6.968;2023-08-08T08:41:35;101114.25;;;18.59;100.00
3444;BME280;1736;52.068;6.968;2023-08-08T08:44:03;101113.91;;;18.62;100.00
3444;BME280;1736;52.068;6.968;2023-08-08T08:46:31;101102.63;;;18.67;100.00
3444;BME280;1736;52.068;6.968;2023-08-08T08:48:58;101106.47;;;18.88;100.00
3444;BME280;1736;52.068;6.968;2023-08-08T08:51:27;101113.84;;;19.02;100.00
3444;BME280;1736;52.068;6.968;2023-08-08T08:53:54;101104.44;;;18.98;100.00
3444;BME280;1736;52.068;6.968;2023-08-08T08:56:20;101108.09;;;19.05;100.00
3444;BME280;1736;52.068;6.968;2023-08-08T08:58:48;101120.22;;;19.01;100.00
3444;BME280;1736;52.068;6.968;2023-08-08T09:01:15;101104.75;;;19.03;100.00
3444;BME280;1736;52.068;6.968;2023-08-08T09:03:44;101090.50;;;18.79;98.50
3444;BME280;1736;52.068;6.968;2023-08-08T09:06:11;101105.78;;;18.94;100.00
3444;BME280;1736;52.068;6.968;2023-08-08T09:08:40;101110.81;;;18.97;100.00
3444;BME280;1736;52.068;6.968;2023-08-08T09:11:07;101104.06;;;19.09;100.00
3444;BME280;1736;52.068;6.968;2023-08-08T09:13:36;101107.47;;;18.95;100.00
3444;BME280;1736;52.068;6.968;2023-08-08T09:16:04;101114.31;;;19.14;100.00
3444;BME280;1736;52.068;6.968;2023-08-08T09:18:31;101103.00;;;19.34;99.04
3444;BME280;1736;52.068;6.968;2023-08-08T09:20:58;101114.97;;;19.62;96.34
3444;BME280;1736;52.068;6.968;2023-08-08T09:23:24;101117.34;;;19.57;91.90
3444;BME280;1736;52.068;6.968;2023-08-08T09:25:52;101114.88;;;19.78;92.42
3444;BME280;1736;52.068;6.968;2023-08-08T09:28:19;101126.25;;;19.97;91.08
3444;BME280;1736;52.068;6.968;2023-08-08T09:30:46;101137.97;;;20.04;90.80
3444;BME280;1736;52.068;6.968;2023-08-08T09:33:13;101123.66;;;20.03;89.52
3444;BME280;1736;52.068;6.968;2023-08-08T09:35:40;101135.34;;;19.96;87.54
3444;BME280;1736;52.068;6.968;2023-08-08T09:38:07;101118.31;;;19.95;88.26
3444;BME280;1736;52.068;6.968;2023-08-08T09:40:33;101118.38;;;19.56;90.20
3444;BME280;1736;52.068;6.968;2023-08-08T09:43:03;101118.34;;;19.64;94.23
3444;BME280;1736;52.068;6.968;2023-08-08T09:45:36;101123.63;;;19.80;89.04
3444;BME280;1736;52.068;6.968;2023-08-08T09:48:04;101125.66;;;20.09;85.34
3444;BME280;1736;52.068;6.968;2023-08-08T09:50:32;101132.84;;;20.62;84.51
3444;BME280;1736;52.068;6.968;2023-08-08T09:53:01;101121.88;;;20.63;84.98
3444;BME280;1736;52.068;6.968;2023-08-08T09:55:28;101128.13;;;20.78;83.88
3444;BME280;1736;52.068;6.968;2023-08-08T09:57:57;101118.25;;;20.34;86.23
3444;BME280;1736;52.068;6.968;2023-08-08T10:00:25;101125.59;;;20.17;84.54
3444;BME280;1736;52.068;6.968;2023-08-08T10:02:53;101116.69;;;20.39;82.44
3444;BME280;1736;52.068;6.968;2023-08-08T10:05:21;101110.59;;;20.60;85.31
3444;BME280;1736;52.068;6.968;2023-08-08T10:07:48;101108.44;;;20.41;84.66
3444;BME280;1736;52.068;6.968;2023-08-08T10:10:15;101108.41;;;19.96;79.58
3444;BME280;1736;52.068;6.968;2023-08-08T10:12:44;101111.78;;;19.89;82.39
3444;BME280;1736;52.068;6.968;2023-08-08T10:15:11;101112.94;;;19.95;82.03
3444;BME280;1736;52.068;6.968;2023-08-08T10:17:41;101113.88;;;19.79;81.48
3444;BME280;1736;52.068;6.968;2023-08-08T10:20:10;101116.06;;;19.45;81.78
3444;BME280;1736;52.068;6.968;2023-08-08T10:22:41;101119.22;;;19.57;84.44
3444;BME280;1736;52.068;6.968;2023-08-08T10:25:08;101098.81;;;19.62;83.41
3444;BME280;1736;52.068;6.968;2023-08-08T10:27:36;101107.59;;;19.56;84.00
3444;BME280;1736;52.068;6.968;2023-08-08T10:30:06;101110.78;;;19.90;85.93
3444;BME280;1736;52.068;6.968;2023-08-08T10:32:43;101111.44;;;20.23;81.81
3444;BME280;1736;52.068;6.968;2023-08-08T10:35:12;101112.63;;;20.21;78.72
3444;BME280;1736;52.068;6.968;2023-08-08T10:37:39;101107.38;;;19.97;78.14
3444;BME280;1736;52.068;6.968;2023-08-08T10:40:07;101110.72;;;19.98;80.96
3444;BME280;1736;52.068;6.968;2023-08-08T10:42:41;101103.00;;;20.26;80.25
3444;BME280;1736;52.068;6.968;2023-08-08T10:45:11;101087.28;;;20.30;81.04
3444;BME280;1736;52.068;6.968;2023-08-08T10:47:39;101104.72;;;20.42;79.67
3444;BME280;1736;52.068;6.968;2023-08-08T10:50:08;101118.72;;;20.37;81.50
3444;BME280;1736;52.068;6.968;2023-08-08T10:52:38;101113.69;;;20.57;80.46
3444;BME280;1736;52.068;6.968;2023-08-08T10:55:06;101109.97;;;20.58;74.94
3444;BME280;1736;52.068;6.968;2023-08-08T10:57:33;101112.09;;;20.62;72.97
3444;BME280;1736;52.068;6.968;2023-08-08T11:00:18;101101.66;;;20.45;72.81
3444;BME280;1736;52.068;6.968;2023-08-08T11:02:45;101101.78;;;20.29;74.46
3444;BME280;1736;52.068;6.968;2023-08-08T11:05:14;101110.09;;;20.79;76.46
3444;BME280;1736;52.068;6.968;2023-08-08T11:07:41;101104.47;;;21.03;76.84
3444;BME280;1736;52.068;6.968;2023-08-08T11:10:25;101105.50;;;21.02;71.40
3444;BME280;1736;52.068;6.968;2023-08-08T11:12:57;101105.38;;;20.81;72.68
3444;BME280;1736;52.068;6.968;2023-08-08T11:15:24;101111.63;;;20.59;72.90
3444;BME280;1736;52.068;6.968;2023-08-08T11:17:52;101090.09;;;20.73;75.45
3444;BME280;1736;52.068;6.968;2023-08-08T11:20:20;101113.56;;;20.87;72.69
3444;BME280;1736;52.068;6.968;2023-08-08T11:22:50;101108.22;;;21.02;69.14
3444;BME280;1736;52.068;6.968;2023-08-08T11:25:17;101096.28;;;20.96;68.13
3444;BME280;1736;52.068;6.968;2023-08-08T11:27:50;101077.53;;;20.80;66.02
3444;BME280;1736;52.068;6.968;2023-08-08T11:30:18;101081.91;;;20.67;70.67
3444;BME280;1736;52.068;6.968;2023-08-08T11:32:45;101085.53;;;20.74;72.28
3444;BME280;1736;52.068;6.968;2023-08-08T11:35:12;101085.00;;;20.93;74.22
3444;BME280;1736;52.068;6.968;2023-08-08T11:37:39;101068.94;;;20.62;71.39
3444;BME280;1736;52.068;6.968;2023-08-08T11:40:07;101082.28;;;20.78;72.55
3444;BME280;1736;52.068;6.968;2023-08-08T11:42:54;101080.38;;;21.16;74.21
3444;BME280;1736;52.068;6.968;2023-08-08T11:45:22;101080.59;;;21.50;73.15
3444;BME280;1736;52.068;6.968;2023-08-08T11:47:49;101074.28;;;21.72;70.78
3444;BME280;1736;52.068;6.968;2023-08-08T11:50:18;101084.72;;;21.60;71.35
3444;BME280;1736;52.068;6.968;2023-08-08T11:52:48;101099.91;;;21.97;71.84
3444;BME280;1736;52.068;6.968;2023-08-08T11:55:15;101098.59;;;21.93;70.50
3444;BME280;1736;52.068;6.968;2023-08-08T11:57:41;101086.38;;;21.76;69.22
3444;BME280;1736;52.068;6.968;2023-08-08T12:00:11;101082.03;;;21.31;68.50
3444;BME280;1736;52.068;6.968;2023-08-08T12:02:38;101075.81;;;21.31;68.78
3444;BME280;1736;52.068;6.968;2023-08-08T12:05:06;101092.81;;;21.31;70.36
3444;BME280;1736;52.068;6.968;2023-08-08T12:07:32;100667.16;;;21.32;71.83
3444;BME280;1736;52.068;6.968;2023-08-08T12:10:00;100733.47;;;21.41;70.38
3444;BME280;1736;52.068;6.968;2023-08-08T12:12:27;100926.75;;;21.71;71.86
3444;BME280;1736;52.068;6.968;2023-08-08T12:14:53;100927.41;;;21.58;71.86
3444;BME280;1736;52.068;6.968;2023-08-08T12:17:22;100897.13;;;21.63;72.41
3444;BME280;1736;52.068;6.968;2023-08-08T12:19:48;100877.47;;;21.27;72.35
3444;BME280;1736;52.068;6.968;2023-08-08T12:22:15;100874.50;;;21.43;72.59
3444;BME280;1736;52.068;6.968;2023-08-08T12:24:41;100893.53;;;21.56;74.54
3444;BME280;1736;52.068;6.968;2023-08-08T12:27:08;100888.13;;;21.35;70.46
3444;BME280;1736;52.068;6.968;2023-08-08T12:29:34;100891.09;;;21.19;68.85
3444;BME280;1736;52.068;6.968;2023-08-08T12:32:04;100886.19;;;21.08;70.70
3444;BME280;1736;52.068;6.968;2023-08-08T12:34:34;100887.63;;;20.75;72.52
3444;BME280;1736;52.068;6.968;2023-08-08T12:37:01;100897.75;;;21.02;76.63
3444;BME280;1736;52.068;6.968;2023-08-08T12:39:28;100909.44;;;21.09;72.16
3444;BME280;1736;52.068;6.968;2023-08-08T12:41:55;100908.97;;;21.05;72.38
3444;BME280;1736;52.068;6.968;2023-08-08T12:44:21;100906.09;;;21.07;72.55
3444;BME280;1736;52.068;6.968;2023-08-08T12:46:48;100900.84;;;21.20;71.87
3444;BME280;1736;52.068;6.968;2023-08-08T12:49:15;100905.19;;;20.85;69.24
3444;BME280;1736;52.068;6.968;2023-08-08T12:51:43;100914.06;;;20.94;70.08
3444;BME280;1736;52.068;6.968;2023-08-08T12:54:09;100897.94;;;20.86;68.87
3444;BME280;1736;52.068;6.968;2023-08-08T12:56:36;100902.84;;;21.11;70.97
3444;BME280;1736;52.068;6.968;2023-08-08T12:59:02;100899.88;;;21.27;72.18